createdAt,value
2018-09-17T00:00:02.031Z,17.1
2018-09-17T00:00:06.237Z,17.1
2018-09-17T00:00:10.455Z,17.09
2018-09-17T00:00:14.661Z,17.1
2018-09-17T00:00:18.966Z,17.09
2018-09-17T00:00:23.168Z,17.1
2018-09-17T00:00:27.259Z,17.09
2018-09-17T00:00:31.463Z,17.09
2018-09-17T00:00:35.660Z,17.09
2018-09-17T00:00:39.858Z,17.09
2018-09-17T00:00:44.060Z,17.08
2018-09-17T00:00:48.260Z,17.08
2018-09-17T00:00:52.365Z,17.07
2018-09-17T00:00:56.468Z,17.07
2018-09-17T00:01:00.786Z,17.08
2018-09-17T00:01:04.783Z,17.07
2018-09-17T00:01:08.879Z,17.07
2018-09-17T00:01:13.085Z,17.06
2018-09-17T00:01:17.395Z,17.06
2018-09-17T00:01:21.707Z,17.06
2018-09-17T00:01:25.697Z,17.06
2018-09-17T00:01:29.897Z,17.06
2018-09-17T00:01:34.094Z,17.06
2018-09-17T00:01:38.293Z,17.04
2018-09-17T00:01:42.492Z,17.05
2018-09-17T00:01:46.698Z,17.05
2018-09-17T00:01:50.955Z,17.04
2018-09-17T00:01:55.169Z,17.05
2018-09-17T00:01:59.366Z,17.04
2018-09-17T00:02:03.469Z,17.04
2018-09-17T00:02:07.677Z,17.04
2018-09-17T00:02:11.770Z,17.04
2018-09-17T00:02:15.862Z,17.03
2018-09-17T00:02:20.173Z,17.04
2018-09-17T00:02:24.377Z,17.02
2018-09-17T00:02:28.476Z,17.03
2018-09-17T00:02:32.567Z,17.02
2018-09-17T00:02:36.882Z,17.02
2018-09-17T00:02:41.076Z,17.02
2018-09-17T00:02:45.384Z,17.02
2018-09-17T00:02:49.480Z,17.03
2018-09-17T00:02:53.583Z,17.03
2018-09-17T00:02:57.780Z,17.02
2018-09-17T00:03:02.139Z,17.01
2018-09-17T00:03:06.226Z,17.01
2018-09-17T00:03:10.536Z,17.02
2018-09-17T00:03:14.729Z,17.02
2018-09-17T00:03:18.925Z,17.01
2018-09-17T00:03:23.023Z,17.01
2018-09-17T00:03:27.223Z,17.01
2018-09-17T00:03:31.528Z,17.02
2018-09-17T00:03:35.828Z,17.01
2018-09-17T00:03:40.028Z,17.01
2018-09-17T00:03:44.121Z,17.01
2018-09-17T00:03:48.324Z,17.01
2018-09-17T00:03:52.533Z,17.01
2018-09-17T00:03:56.842Z,17.01
2018-09-17T00:04:00.936Z,17
2018-09-17T00:04:05.242Z,17
2018-09-17T00:04:09.337Z,17
2018-09-17T00:04:13.531Z,17
2018-09-17T00:04:17.843Z,17
2018-09-17T00:04:22.049Z,17
2018-09-17T00:04:26.263Z,16.99
2018-09-17T00:04:30.580Z,16.99
2018-09-17T00:04:34.778Z,16.98
2018-09-17T00:04:38.875Z,16.99
2018-09-17T00:04:43.185Z,16.98
2018-09-17T00:04:47.383Z,16.98
2018-09-17T00:04:51.486Z,16.97
2018-09-17T00:04:55.691Z,16.98
2018-09-17T00:05:00.015Z,16.97
2018-09-17T00:05:04.013Z,16.97
2018-09-17T00:05:08.108Z,16.97
2018-09-17T00:05:12.420Z,16.96
2018-09-17T00:05:16.624Z,16.96
2018-09-17T00:05:20.927Z,16.96
2018-09-17T00:05:25.022Z,16.96
2018-09-17T00:05:29.220Z,16.96
2018-09-17T00:05:33.531Z,16.96
2018-09-17T00:05:37.735Z,16.96
2018-09-17T00:05:41.727Z,16.95
2018-09-17T00:05:45.930Z,16.96
2018-09-17T00:05:50.027Z,16.96
2018-09-17T00:05:54.235Z,16.96
2018-09-17T00:05:58.447Z,16.96
2018-09-17T00:06:02.651Z,16.95
2018-09-17T00:06:06.864Z,16.96
2018-09-17T00:06:11.064Z,16.95
2018-09-17T00:06:15.266Z,16.95
2018-09-17T00:06:19.469Z,16.95
2018-09-17T00:06:23.781Z,16.96
2018-09-17T00:06:27.981Z,16.95
2018-09-17T00:06:32.178Z,16.95
2018-09-17T00:06:36.481Z,16.95
2018-09-17T00:06:40.784Z,16.95
2018-09-17T00:06:45.087Z,16.95
2018-09-17T00:06:49.194Z,16.95
2018-09-17T00:06:53.499Z,16.94
2018-09-17T00:06:57.693Z,16.95
2018-09-17T00:07:02.000Z,16.95
2018-09-17T00:07:06.103Z,16.95
2018-09-17T00:07:10.410Z,16.94
2018-09-17T00:07:14.717Z,16.95
2018-09-17T00:07:19.027Z,16.94
2018-09-17T00:07:23.234Z,16.93
2018-09-17T00:07:27.440Z,16.94
2018-09-17T00:07:31.534Z,16.95
2018-09-17T00:07:35.746Z,16.94
2018-09-17T00:07:39.946Z,16.95
2018-09-17T00:07:44.143Z,16.94
2018-09-17T00:07:48.460Z,16.94
2018-09-17T00:07:52.665Z,16.94
2018-09-17T00:07:56.868Z,16.93
2018-09-17T00:08:01.181Z,16.94
2018-09-17T00:08:05.528Z,16.93
2018-09-17T00:08:09.728Z,16.94
2018-09-17T00:08:13.934Z,16.94
2018-09-17T00:08:18.248Z,16.94
2018-09-17T00:08:22.552Z,16.93
2018-09-17T00:08:26.748Z,16.94
2018-09-17T00:08:30.960Z,16.93
2018-09-17T00:08:35.155Z,16.94
2018-09-17T00:08:39.461Z,16.93
2018-09-17T00:08:43.565Z,16.93
2018-09-17T00:08:47.763Z,16.93
2018-09-17T00:08:51.966Z,16.92
2018-09-17T00:08:56.166Z,16.92
2018-09-17T00:09:00.367Z,16.92
2018-09-17T00:09:04.573Z,16.92
2018-09-17T00:09:08.673Z,16.93
2018-09-17T00:09:12.987Z,16.93
2018-09-17T00:09:17.191Z,16.92
2018-09-17T00:09:21.503Z,16.92
2018-09-17T00:09:25.808Z,16.91
2018-09-17T00:09:29.905Z,16.93
2018-09-17T00:09:34.107Z,16.92
2018-09-17T00:09:38.207Z,16.93
2018-09-17T00:09:42.508Z,16.91
2018-09-17T00:09:46.598Z,16.92
2018-09-17T00:09:50.938Z,16.91
2018-09-17T00:09:55.146Z,16.92
2018-09-17T00:09:59.240Z,16.92
2018-09-17T00:10:03.332Z,16.92
2018-09-17T00:10:07.425Z,16.92
2018-09-17T00:10:11.734Z,16.92
2018-09-17T00:10:15.823Z,16.92
2018-09-17T00:10:19.812Z,16.92
2018-09-17T00:10:24.022Z,16.92
2018-09-17T00:10:28.216Z,16.92
2018-09-17T00:10:32.306Z,16.92
2018-09-17T00:10:36.512Z,16.91
2018-09-17T00:10:40.811Z,16.91
2018-09-17T00:10:44.688Z,16.92
2018-09-17T00:10:48.881Z,16.92
2018-09-17T00:10:53.190Z,16.92
2018-09-17T00:10:57.289Z,16.93
2018-09-17T00:11:01.590Z,16.92
2018-09-17T00:11:05.798Z,16.92
2018-09-17T00:11:09.991Z,16.92
2018-09-17T00:11:14.189Z,16.93
2018-09-17T00:11:18.390Z,16.92
2018-09-17T00:11:22.700Z,16.92
2018-09-17T00:11:26.909Z,16.92
2018-09-17T00:11:31.260Z,16.92
2018-09-17T00:11:35.573Z,16.92
2018-09-17T00:11:39.888Z,16.92
2018-09-17T00:11:44.196Z,16.92
2018-09-17T00:11:48.288Z,16.93
2018-09-17T00:11:52.597Z,16.93
2018-09-17T00:11:56.810Z,16.92
2018-09-17T00:12:01.115Z,16.93
2018-09-17T00:12:05.362Z,16.92
2018-09-17T00:12:09.672Z,16.93
2018-09-17T00:12:13.977Z,16.94
2018-09-17T00:12:18.072Z,16.93
2018-09-17T00:12:22.382Z,16.94
2018-09-17T00:12:26.581Z,16.94
2018-09-17T00:12:30.785Z,16.93
2018-09-17T00:12:35.090Z,16.94
2018-09-17T00:12:39.288Z,16.94
2018-09-17T00:12:43.494Z,16.94
2018-09-17T00:12:47.803Z,16.94
2018-09-17T00:12:52.118Z,16.93
2018-09-17T00:12:56.429Z,16.94
2018-09-17T00:13:00.423Z,16.94
2018-09-17T00:13:04.417Z,16.95
2018-09-17T00:13:08.513Z,16.94
2018-09-17T00:13:12.711Z,16.95
2018-09-17T00:13:16.815Z,16.95
2018-09-17T00:13:21.126Z,16.95
2018-09-17T00:13:25.220Z,16.96
2018-09-17T00:13:29.422Z,16.95
2018-09-17T00:13:33.631Z,16.94
2018-09-17T00:13:37.943Z,16.96
2018-09-17T00:13:42.255Z,16.95
2018-09-17T00:13:46.451Z,16.95
2018-09-17T00:13:50.652Z,16.96
2018-09-17T00:13:54.855Z,16.96
2018-09-17T00:13:59.172Z,16.96
2018-09-17T00:14:03.372Z,16.96
2018-09-17T00:14:07.572Z,16.96
2018-09-17T00:14:11.778Z,16.96
2018-09-17T00:14:15.981Z,16.96
2018-09-17T00:14:20.181Z,16.97
2018-09-17T00:14:24.493Z,16.97
2018-09-17T00:14:28.487Z,16.97
2018-09-17T00:14:32.679Z,16.98
2018-09-17T00:14:36.990Z,16.98
2018-09-17T00:14:41.081Z,16.98
2018-09-17T00:14:45.282Z,16.97
2018-09-17T00:14:49.483Z,16.98
2018-09-17T00:14:53.580Z,16.98
2018-09-17T00:14:57.671Z,16.98
2018-09-17T00:15:01.884Z,16.98
2018-09-17T00:15:05.985Z,16.98
2018-09-17T00:15:10.201Z,16.98
2018-09-17T00:15:14.506Z,16.99
2018-09-17T00:15:18.812Z,16.99
2018-09-17T00:15:23.014Z,16.99
2018-09-17T00:15:27.210Z,16.99
2018-09-17T00:15:31.667Z,16.99
2018-09-17T00:15:35.993Z,16.99
2018-09-17T00:15:40.193Z,17
2018-09-17T00:15:44.390Z,17
2018-09-17T00:15:48.594Z,17
2018-09-17T00:15:52.689Z,17
2018-09-17T00:15:56.998Z,17
2018-09-17T00:16:01.308Z,17
2018-09-17T00:16:05.516Z,17
2018-09-17T00:16:09.835Z,17.01
2018-09-17T00:16:14.149Z,17.01
2018-09-17T00:16:18.253Z,17.01
2018-09-17T00:16:22.456Z,17.01
2018-09-17T00:16:26.766Z,17.02
2018-09-17T00:16:31.078Z,17.01
2018-09-17T00:16:35.392Z,17.02
2018-09-17T00:16:39.697Z,17.02
2018-09-17T00:16:43.902Z,17.02
2018-09-17T00:16:48.108Z,17.03
2018-09-17T00:16:52.421Z,17.02
2018-09-17T00:16:56.635Z,17.02
2018-09-17T00:17:00.944Z,17.02
2018-09-17T00:17:05.036Z,17.03
2018-09-17T00:17:09.350Z,17.04
2018-09-17T00:17:13.557Z,17.04
2018-09-17T00:17:17.763Z,17.04
2018-09-17T00:17:21.972Z,17.04
2018-09-17T00:17:26.175Z,17.04
2018-09-17T00:17:30.381Z,17.04
2018-09-17T00:17:34.692Z,17.06
2018-09-17T00:17:38.675Z,17.05
2018-09-17T00:17:42.892Z,17.07
2018-09-17T00:17:47.206Z,17.06
2018-09-17T00:17:51.401Z,17.07
2018-09-17T00:17:55.602Z,17.07
2018-09-17T00:17:59.911Z,17.07
2018-09-17T00:18:04.011Z,17.08
2018-09-17T00:18:08.206Z,17.08
2018-09-17T00:18:12.528Z,17.09
2018-09-17T00:18:16.630Z,17.09
2018-09-17T00:18:20.939Z,17.09
2018-09-17T00:18:25.254Z,17.09
2018-09-17T00:18:29.605Z,17.09
2018-09-17T00:18:33.908Z,17.09
2018-09-17T00:18:38.108Z,17.1
2018-09-17T00:18:42.323Z,17.1
2018-09-17T00:18:46.525Z,17.11
2018-09-17T00:18:50.844Z,17.11
2018-09-17T00:18:54.840Z,17.11
2018-09-17T00:18:59.046Z,17.12
2018-09-17T00:19:03.088Z,17.12
2018-09-17T00:19:07.290Z,17.12
2018-09-17T00:19:11.386Z,17.12
2018-09-17T00:19:15.716Z,17.12
2018-09-17T00:19:19.911Z,17.13
2018-09-17T00:19:24.225Z,17.14
2018-09-17T00:19:28.468Z,17.14
2018-09-17T00:19:32.793Z,17.14
2018-09-17T00:19:37.110Z,17.14
2018-09-17T00:19:41.212Z,17.14
2018-09-17T00:19:45.416Z,17.16
2018-09-17T00:19:49.514Z,17.16
2018-09-17T00:19:53.829Z,17.16
2018-09-17T00:19:58.132Z,17.16
2018-09-17T00:20:02.331Z,17.17
2018-09-17T00:20:06.211Z,17.16
2018-09-17T00:20:10.522Z,17.17
2018-09-17T00:20:14.511Z,17.18
2018-09-17T00:20:18.721Z,17.18
2018-09-17T00:20:22.717Z,17.18
2018-09-17T00:20:26.705Z,17.19
2018-09-17T00:20:30.905Z,17.19
2018-09-17T00:20:35.107Z,17.2
2018-09-17T00:20:39.306Z,17.2
2018-09-17T00:20:43.399Z,17.2
2018-09-17T00:20:47.494Z,17.2
2018-09-17T00:20:51.696Z,17.2
2018-09-17T00:20:55.902Z,17.21
2018-09-17T00:21:00.213Z,17.22
2018-09-17T00:21:04.212Z,17.22
2018-09-17T00:21:08.522Z,17.22
2018-09-17T00:21:12.722Z,17.22
2018-09-17T00:21:16.918Z,17.22
2018-09-17T00:21:21.043Z,17.22
2018-09-17T00:21:25.348Z,17.23
2018-09-17T00:21:29.652Z,17.23
2018-09-17T00:21:33.765Z,17.24
2018-09-17T00:21:37.747Z,17.24
2018-09-17T00:21:42.068Z,17.24
2018-09-17T00:21:46.379Z,17.24
2018-09-17T00:21:50.577Z,17.24
2018-09-17T00:21:54.776Z,17.25
2018-09-17T00:21:59.096Z,17.24
2018-09-17T00:22:03.296Z,17.25
2018-09-17T00:22:07.497Z,17.25
2018-09-17T00:22:11.704Z,17.26
2018-09-17T00:22:15.911Z,17.26
2018-09-17T00:22:20.005Z,17.26
2018-09-17T00:22:24.207Z,17.27
2018-09-17T00:22:28.411Z,17.27
2018-09-17T00:22:32.623Z,17.27
2018-09-17T00:22:36.722Z,17.27
2018-09-17T00:22:41.045Z,17.28
2018-09-17T00:22:45.358Z,17.28
2018-09-17T00:22:49.474Z,17.28
2018-09-17T00:22:53.668Z,17.28
2018-09-17T00:22:57.869Z,17.29
2018-09-17T00:23:02.078Z,17.29
2018-09-17T00:23:06.432Z,17.29
2018-09-17T00:23:10.316Z,17.28
2018-09-17T00:23:14.407Z,17.3
2018-09-17T00:23:18.611Z,17.29
2018-09-17T00:23:22.929Z,17.3
2018-09-17T00:23:27.133Z,17.3
2018-09-17T00:23:31.442Z,17.3
2018-09-17T00:23:35.767Z,17.3
2018-09-17T00:23:39.873Z,17.3
2018-09-17T00:23:44.077Z,17.3
2018-09-17T00:23:48.284Z,17.31
2018-09-17T00:23:52.595Z,17.32
2018-09-17T00:23:56.796Z,17.31
2018-09-17T00:24:01.003Z,17.31
2018-09-17T00:24:05.209Z,17.32
2018-09-17T00:24:09.343Z,17.32
2018-09-17T00:24:13.546Z,17.32
2018-09-17T00:24:17.851Z,17.32
2018-09-17T00:24:22.175Z,17.32
2018-09-17T00:24:26.277Z,17.33
2018-09-17T00:24:30.594Z,17.33
2018-09-17T00:24:34.688Z,17.33
2018-09-17T00:24:38.901Z,17.33
2018-09-17T00:24:43.099Z,17.33
2018-09-17T00:24:47.353Z,17.34
2018-09-17T00:24:51.670Z,17.34
2018-09-17T00:24:55.869Z,17.34
2018-09-17T00:25:00.072Z,17.34
2018-09-17T00:25:04.069Z,17.34
2018-09-17T00:25:08.163Z,17.35
2018-09-17T00:25:12.363Z,17.35
2018-09-17T00:25:16.569Z,17.34
2018-09-17T00:25:20.867Z,17.35
2018-09-17T00:25:25.175Z,17.35
2018-09-17T00:25:29.374Z,17.36
2018-09-17T00:25:33.627Z,17.36
2018-09-17T00:25:37.833Z,17.36
2018-09-17T00:25:42.037Z,17.36
2018-09-17T00:25:46.238Z,17.36
2018-09-17T00:25:50.228Z,17.36
2018-09-17T00:25:54.424Z,17.36
2018-09-17T00:25:58.739Z,17.37
2018-09-17T00:26:02.939Z,17.38
2018-09-17T00:26:07.253Z,17.36
2018-09-17T00:26:11.566Z,17.37
2018-09-17T00:26:15.770Z,17.38
2018-09-17T00:26:20.090Z,17.38
2018-09-17T00:26:24.293Z,17.38
2018-09-17T00:26:28.499Z,17.37
2018-09-17T00:26:32.695Z,17.38
2018-09-17T00:26:36.895Z,17.38
2018-09-17T00:26:41.091Z,17.38
2018-09-17T00:26:45.397Z,17.39
2018-09-17T00:26:49.387Z,17.39
2018-09-17T00:26:53.589Z,17.38
2018-09-17T00:26:57.902Z,17.39
2018-09-17T00:27:02.106Z,17.39
2018-09-17T00:27:06.199Z,17.39
2018-09-17T00:27:10.287Z,17.39
2018-09-17T00:27:14.494Z,17.39
2018-09-17T00:27:18.806Z,17.39
2018-09-17T00:27:23.125Z,17.39
2018-09-17T00:27:27.429Z,17.4
2018-09-17T00:27:31.425Z,17.4
2018-09-17T00:27:35.743Z,17.4
2018-09-17T00:27:39.945Z,17.4
2018-09-17T00:27:44.277Z,17.4
2018-09-17T00:27:48.582Z,17.4
2018-09-17T00:27:52.673Z,17.4
2018-09-17T00:27:56.880Z,17.4
2018-09-17T00:28:01.080Z,17.41
2018-09-17T00:28:05.281Z,17.4
2018-09-17T00:28:09.479Z,17.41
2018-09-17T00:28:13.675Z,17.41
2018-09-17T00:28:18.028Z,17.41
2018-09-17T00:28:22.334Z,17.41
2018-09-17T00:28:26.533Z,17.41
2018-09-17T00:28:30.724Z,17.41
2018-09-17T00:28:35.030Z,17.4
2018-09-17T00:28:39.232Z,17.41
2018-09-17T00:28:43.326Z,17.42
2018-09-17T00:28:47.525Z,17.42
2018-09-17T00:28:51.834Z,17.42
2018-09-17T00:28:56.031Z,17.42
2018-09-17T00:29:00.338Z,17.42
2018-09-17T00:29:04.530Z,17.41
2018-09-17T00:29:08.626Z,17.41
2018-09-17T00:29:12.720Z,17.43
2018-09-17T00:29:16.821Z,17.42
2018-09-17T00:29:21.020Z,17.41
2018-09-17T00:29:25.353Z,17.43
2018-09-17T00:29:29.505Z,17.42
2018-09-17T00:29:33.604Z,17.42
2018-09-17T00:29:37.802Z,17.43
2018-09-17T00:29:41.898Z,17.42
2018-09-17T00:29:45.992Z,17.42
2018-09-17T00:29:50.202Z,17.42
2018-09-17T00:29:54.401Z,17.42
2018-09-17T00:29:58.702Z,17.42
2018-09-17T00:30:02.901Z,17.43
2018-09-17T00:30:06.887Z,17.42
2018-09-17T00:30:11.082Z,17.43
2018-09-17T00:30:15.397Z,17.43
2018-09-17T00:30:19.490Z,17.43
2018-09-17T00:30:23.690Z,17.42
2018-09-17T00:30:28.000Z,17.42
2018-09-17T00:30:32.212Z,17.43
2018-09-17T00:30:36.524Z,17.42
2018-09-17T00:30:40.732Z,17.42
2018-09-17T00:30:45.040Z,17.42
2018-09-17T00:30:49.235Z,17.42
2018-09-17T00:30:53.433Z,17.42
2018-09-17T00:30:57.732Z,17.42
2018-09-17T00:31:02.043Z,17.42
2018-09-17T00:31:06.133Z,17.42
2018-09-17T00:31:10.334Z,17.41
2018-09-17T00:31:14.578Z,17.41
2018-09-17T00:31:18.777Z,17.41
2018-09-17T00:31:23.090Z,17.42
2018-09-17T00:31:27.185Z,17.41
2018-09-17T00:31:31.273Z,17.41
2018-09-17T00:31:35.583Z,17.41
2018-09-17T00:31:39.889Z,17.41
2018-09-17T00:31:43.981Z,17.4
2018-09-17T00:31:48.182Z,17.4
2018-09-17T00:31:52.388Z,17.4
2018-09-17T00:31:56.700Z,17.4
2018-09-17T00:32:00.901Z,17.38
2018-09-17T00:32:04.889Z,17.39
2018-09-17T00:32:09.091Z,17.39
2018-09-17T00:32:13.181Z,17.38
2018-09-17T00:32:17.376Z,17.38
2018-09-17T00:32:21.682Z,17.37
2018-09-17T00:32:25.779Z,17.37
2018-09-17T00:32:29.979Z,17.37
2018-09-17T00:32:34.178Z,17.36
2018-09-17T00:32:38.484Z,17.36
2018-09-17T00:32:42.800Z,17.36
2018-09-17T00:32:46.942Z,17.36
2018-09-17T00:32:51.152Z,17.36
2018-09-17T00:32:55.142Z,17.35
2018-09-17T00:32:59.345Z,17.35
2018-09-17T00:33:03.445Z,17.35
2018-09-17T00:33:07.647Z,17.35
2018-09-17T00:33:11.737Z,17.33
2018-09-17T00:33:16.051Z,17.33
2018-09-17T00:33:20.247Z,17.33
2018-09-17T00:33:24.448Z,17.32
2018-09-17T00:33:28.645Z,17.32
2018-09-17T00:33:32.836Z,17.32
2018-09-17T00:33:37.146Z,17.32
2018-09-17T00:33:41.241Z,17.31
2018-09-17T00:33:45.455Z,17.32
2018-09-17T00:33:49.775Z,17.3
2018-09-17T00:33:53.971Z,17.3
2018-09-17T00:33:58.176Z,17.3
2018-09-17T00:34:02.160Z,17.3
2018-09-17T00:34:06.362Z,17.3
2018-09-17T00:34:10.572Z,17.29
2018-09-17T00:34:14.886Z,17.29
2018-09-17T00:34:19.193Z,17.29
2018-09-17T00:34:23.282Z,17.28
2018-09-17T00:34:27.284Z,17.28
2018-09-17T00:34:31.584Z,17.28
2018-09-17T00:34:35.783Z,17.27
2018-09-17T00:34:40.086Z,17.28
2018-09-17T00:34:44.183Z,17.27
2018-09-17T00:34:48.392Z,17.26
2018-09-17T00:34:52.697Z,17.27
2018-09-17T00:34:56.792Z,17.27
2018-09-17T00:35:00.890Z,17.26
2018-09-17T00:35:04.876Z,17.26
2018-09-17T00:35:09.079Z,17.25
2018-09-17T00:35:13.282Z,17.25
2018-09-17T00:35:17.489Z,17.25
2018-09-17T00:35:21.692Z,17.25
2018-09-17T00:35:26.013Z,17.25
2018-09-17T00:35:30.109Z,17.25
2018-09-17T00:35:34.416Z,17.24
2018-09-17T00:35:38.507Z,17.24
2018-09-17T00:35:42.493Z,17.24
2018-09-17T00:35:46.801Z,17.24
2018-09-17T00:35:51.001Z,17.23
2018-09-17T00:35:55.311Z,17.23
2018-09-17T00:35:59.403Z,17.22
2018-09-17T00:36:03.387Z,17.22
2018-09-17T00:36:07.590Z,17.22
2018-09-17T00:36:11.906Z,17.21
2018-09-17T00:36:16.218Z,17.22
2018-09-17T00:36:20.410Z,17.21
2018-09-17T00:36:24.718Z,17.21
2018-09-17T00:36:29.028Z,17.22
2018-09-17T00:36:33.228Z,17.21
2018-09-17T00:36:37.529Z,17.21
2018-09-17T00:36:41.728Z,17.2
2018-09-17T00:36:46.029Z,17.2
2018-09-17T00:36:50.236Z,17.2
2018-09-17T00:36:54.327Z,17.19
2018-09-17T00:36:58.627Z,17.19
2018-09-17T00:37:03.034Z,17.19
2018-09-17T00:37:07.226Z,17.19
2018-09-17T00:37:11.318Z,17.19
2018-09-17T00:37:15.637Z,17.18
2018-09-17T00:37:19.839Z,17.18
2018-09-17T00:37:24.036Z,17.18
2018-09-17T00:37:28.136Z,17.18
2018-09-17T00:37:32.341Z,17.16
2018-09-17T00:37:36.652Z,17.17
2018-09-17T00:37:40.859Z,17.17
2018-09-17T00:37:45.055Z,17.16
2018-09-17T00:37:49.361Z,17.16
2018-09-17T00:37:53.669Z,17.16
2018-09-17T00:37:57.772Z,17.16
2018-09-17T00:38:01.969Z,17.16
2018-09-17T00:38:06.168Z,17.15
2018-09-17T00:38:10.469Z,17.15
2018-09-17T00:38:14.727Z,17.13
2018-09-17T00:38:18.934Z,17.14
2018-09-17T00:38:23.244Z,17.14
2018-09-17T00:38:27.451Z,17.15
2018-09-17T00:38:31.646Z,17.14
2018-09-17T00:38:35.842Z,17.15
2018-09-17T00:38:39.937Z,17.14
2018-09-17T00:38:44.248Z,17.15
2018-09-17T00:38:48.597Z,17.15
2018-09-17T00:38:52.804Z,17.13
2018-09-17T00:38:57.115Z,17.14
2018-09-17T00:39:01.105Z,17.14
2018-09-17T00:39:05.203Z,17.13
2018-09-17T00:39:09.400Z,17.13
2018-09-17T00:39:13.702Z,17.13
2018-09-17T00:39:17.904Z,17.12
2018-09-17T00:39:22.105Z,17.12
2018-09-17T00:39:26.201Z,17.12
2018-09-17T00:39:30.405Z,17.12
2018-09-17T00:39:34.714Z,17.12
2018-09-17T00:39:38.705Z,17.12
2018-09-17T00:39:43.010Z,17.12
2018-09-17T00:39:47.328Z,17.12
2018-09-17T00:39:51.634Z,17.12
2018-09-17T00:39:55.948Z,17.11
2018-09-17T00:40:00.042Z,17.12
2018-09-17T00:40:04.190Z,17.12
2018-09-17T00:40:08.281Z,17.11
2018-09-17T00:40:12.482Z,17.12
2018-09-17T00:40:16.677Z,17.11
2018-09-17T00:40:20.874Z,17.11
2018-09-17T00:40:25.084Z,17.11
2018-09-17T00:40:29.284Z,17.11
2018-09-17T00:40:33.380Z,17.12
2018-09-17T00:40:37.691Z,17.11
2018-09-17T00:40:41.776Z,17.11
2018-09-17T00:40:45.884Z,17.11
2018-09-17T00:40:49.978Z,17.11
2018-09-17T00:40:54.173Z,17.11
2018-09-17T00:40:58.477Z,17.11
2018-09-17T00:41:02.626Z,17.12
2018-09-17T00:41:06.951Z,17.11
2018-09-17T00:41:11.146Z,17.12
2018-09-17T00:41:15.341Z,17.12
2018-09-17T00:41:19.650Z,17.12
2018-09-17T00:41:23.955Z,17.12
2018-09-17T00:41:28.158Z,17.12
2018-09-17T00:41:32.470Z,17.12
2018-09-17T00:41:36.667Z,17.11
2018-09-17T00:41:40.659Z,17.12
2018-09-17T00:41:44.757Z,17.12
2018-09-17T00:41:49.070Z,17.12
2018-09-17T00:41:53.279Z,17.13
2018-09-17T00:41:57.481Z,17.12
2018-09-17T00:42:01.691Z,17.13
2018-09-17T00:42:05.784Z,17.13
2018-09-17T00:42:09.771Z,17.12
2018-09-17T00:42:13.865Z,17.12
2018-09-17T00:42:18.067Z,17.13
2018-09-17T00:42:22.267Z,17.13
2018-09-17T00:42:26.494Z,17.13
2018-09-17T00:42:30.584Z,17.12
2018-09-17T00:42:34.890Z,17.12
2018-09-17T00:42:39.091Z,17.11
2018-09-17T00:42:43.391Z,17.13
2018-09-17T00:42:47.697Z,17.12
2018-09-17T00:42:51.894Z,17.12
2018-09-17T00:42:56.107Z,17.12
2018-09-17T00:43:00.303Z,17.12
2018-09-17T00:43:04.614Z,17.12
2018-09-17T00:43:08.810Z,17.13
2018-09-17T00:43:12.911Z,17.12
2018-09-17T00:43:17.232Z,17.13
2018-09-17T00:43:21.326Z,17.12
2018-09-17T00:43:25.201Z,17.12
2018-09-17T00:43:29.410Z,17.12
2018-09-17T00:43:33.505Z,17.12
2018-09-17T00:43:37.811Z,17.12
2018-09-17T00:43:42.060Z,17.12
2018-09-17T00:43:46.263Z,17.12
2018-09-17T00:43:50.573Z,17.11
2018-09-17T00:43:54.894Z,17.11
2018-09-17T00:43:59.192Z,17.12
2018-09-17T00:44:03.395Z,17.11
2018-09-17T00:44:07.379Z,17.12
2018-09-17T00:44:11.580Z,17.12
2018-09-17T00:44:15.680Z,17.12
2018-09-17T00:44:19.996Z,17.12
2018-09-17T00:44:24.299Z,17.12
2018-09-17T00:44:28.502Z,17.12
2018-09-17T00:44:32.817Z,17.11
2018-09-17T00:44:37.129Z,17.11
2018-09-17T00:44:41.329Z,17.12
2018-09-17T00:44:45.421Z,17.12
2018-09-17T00:44:49.642Z,17.12
2018-09-17T00:44:53.961Z,17.11
2018-09-17T00:44:58.261Z,17.11
2018-09-17T00:45:02.358Z,17.12
2018-09-17T00:45:06.453Z,17.11
2018-09-17T00:45:10.547Z,17.11
2018-09-17T00:45:14.745Z,17.12
2018-09-17T00:45:18.938Z,17.12
2018-09-17T00:45:22.931Z,17.11
2018-09-17T00:45:27.134Z,17.12
2018-09-17T00:45:31.335Z,17.12
2018-09-17T00:45:35.529Z,17.11
2018-09-17T00:45:39.833Z,17.11
2018-09-17T00:45:44.046Z,17.12
2018-09-17T00:45:48.256Z,17.11
2018-09-17T00:45:52.454Z,17.12
2018-09-17T00:45:56.756Z,17.11
2018-09-17T00:46:00.948Z,17.12
2018-09-17T00:46:05.142Z,17.12
2018-09-17T00:46:09.338Z,17.11
2018-09-17T00:46:13.638Z,17.12
2018-09-17T00:46:17.836Z,17.11
2018-09-17T00:46:22.039Z,17.12
2018-09-17T00:46:26.138Z,17.12
2018-09-17T00:46:30.338Z,17.11
2018-09-17T00:46:34.531Z,17.12
2018-09-17T00:46:38.833Z,17.12
2018-09-17T00:46:43.134Z,17.11
2018-09-17T00:46:47.332Z,17.12
2018-09-17T00:46:51.330Z,17.11
2018-09-17T00:46:55.538Z,17.11
2018-09-17T00:46:59.739Z,17.11
2018-09-17T00:47:03.720Z,17.12
2018-09-17T00:47:07.809Z,17.11
2018-09-17T00:47:11.902Z,17.1
2018-09-17T00:47:16.160Z,17.11
2018-09-17T00:47:20.251Z,17.11
2018-09-17T00:47:24.448Z,17.11
2018-09-17T00:47:28.753Z,17.1
2018-09-17T00:47:32.958Z,17.11
2018-09-17T00:47:37.162Z,17.11
2018-09-17T00:47:41.472Z,17.11
2018-09-17T00:47:45.674Z,17.11
2018-09-17T00:47:49.871Z,17.11
2018-09-17T00:47:53.864Z,17.11
2018-09-17T00:47:58.063Z,17.11
2018-09-17T00:48:02.047Z,17.11
2018-09-17T00:48:06.034Z,17.11
2018-09-17T00:48:10.243Z,17.1
2018-09-17T00:48:14.437Z,17.11
2018-09-17T00:48:18.759Z,17.1
2018-09-17T00:48:23.068Z,17.1
2018-09-17T00:48:27.399Z,17.09
2018-09-17T00:48:31.601Z,17.1
2018-09-17T00:48:35.920Z,17.11
2018-09-17T00:48:40.112Z,17.09
2018-09-17T00:48:44.421Z,17.1
2018-09-17T00:48:48.619Z,17.11
2018-09-17T00:48:52.713Z,17.1
2018-09-17T00:48:56.804Z,17.1
2018-09-17T00:49:01.003Z,17.1
2018-09-17T00:49:04.990Z,17.1
2018-09-17T00:49:09.185Z,17.1
2018-09-17T00:49:13.390Z,17.1
2018-09-17T00:49:17.701Z,17.1
2018-09-17T00:49:22.021Z,17.1
2018-09-17T00:49:26.226Z,17.11
2018-09-17T00:49:30.434Z,17.1
2018-09-17T00:49:34.735Z,17.1
2018-09-17T00:49:38.718Z,17.1
2018-09-17T00:49:43.027Z,17.1
2018-09-17T00:49:47.244Z,17.1
2018-09-17T00:49:51.551Z,17.09
2018-09-17T00:49:55.645Z,17.11
2018-09-17T00:49:59.950Z,17.1
2018-09-17T00:50:03.937Z,17.1
2018-09-17T00:50:08.135Z,17.1
2018-09-17T00:50:12.445Z,17.1
2018-09-17T00:50:16.641Z,17.1
2018-09-17T00:50:20.949Z,17.1
2018-09-17T00:50:25.039Z,17.1
2018-09-17T00:50:29.343Z,17.1
2018-09-17T00:50:33.540Z,17.1
2018-09-17T00:50:37.747Z,17.1
2018-09-17T00:50:41.882Z,17.1
2018-09-17T00:50:45.973Z,17.1
2018-09-17T00:50:49.865Z,17.1
2018-09-17T00:50:54.064Z,17.1
2018-09-17T00:50:58.387Z,17.1
2018-09-17T00:51:02.631Z,17.11
2018-09-17T00:51:06.617Z,17.11
2018-09-17T00:51:10.607Z,17.11
2018-09-17T00:51:14.804Z,17.11
2018-09-17T00:51:19.107Z,17.1
2018-09-17T00:51:23.196Z,17.11
2018-09-17T00:51:27.396Z,17.11
2018-09-17T00:51:31.601Z,17.11
2018-09-17T00:51:35.803Z,17.11
2018-09-17T00:51:40.009Z,17.1
2018-09-17T00:51:44.315Z,17.1
2018-09-17T00:51:48.515Z,17.11
2018-09-17T00:51:52.729Z,17.11
2018-09-17T00:51:56.929Z,17.11
2018-09-17T00:52:01.232Z,17.11
2018-09-17T00:52:05.542Z,17.12
2018-09-17T00:52:09.741Z,17.11
2018-09-17T00:52:14.052Z,17.11
2018-09-17T00:52:18.351Z,17.11
2018-09-17T00:52:22.648Z,17.11
2018-09-17T00:52:26.948Z,17.12
2018-09-17T00:52:31.141Z,17.12
2018-09-17T00:52:35.348Z,17.12
2018-09-17T00:52:39.549Z,17.12
2018-09-17T00:52:43.534Z,17.11
2018-09-17T00:52:47.733Z,17.12
2018-09-17T00:52:52.043Z,17.12
2018-09-17T00:52:56.244Z,17.12
2018-09-17T00:53:00.443Z,17.12
2018-09-17T00:53:04.642Z,17.13
2018-09-17T00:53:08.847Z,17.13
2018-09-17T00:53:13.152Z,17.12
2018-09-17T00:53:17.458Z,17.12
2018-09-17T00:53:21.550Z,17.12
2018-09-17T00:53:25.536Z,17.13
2018-09-17T00:53:29.842Z,17.13
2018-09-17T00:53:34.157Z,17.12
2018-09-17T00:53:38.356Z,17.13
2018-09-17T00:53:42.558Z,17.13
2018-09-17T00:53:46.750Z,17.12
2018-09-17T00:53:50.944Z,17.13
2018-09-17T00:53:55.252Z,17.13
2018-09-17T00:53:59.559Z,17.14
2018-09-17T00:54:03.648Z,17.13
2018-09-17T00:54:07.738Z,17.14
2018-09-17T00:54:11.825Z,17.15
2018-09-17T00:54:16.032Z,17.14
2018-09-17T00:54:20.232Z,17.13
2018-09-17T00:54:24.536Z,17.14